sensor_id;sensor_type;location;lat;lon;timestamp;pressure;altitude;pressure_sealevel;temperature;humidity
52927;BME280;40783;49.710;8.842;2023-04-01T00:02:12;97462.00;;;8.98;100.00
52927;BME280;40783;49.710;8.842;2023-04-01T00:04:37;97462.13;;;9.12;100.00
52927;BME280;40783;49.710;8.842;2023-04-01T00:07:02;97464.84;;;8.97;100.00
52927;BME280;40783;49.710;8.842;2023-04-01T00:09:28;97471.88;;;9.04;100.00
52927;BME280;40783;49.710;8.842;2023-04-01T00:11:55;97472.25;;;9.01;100.00
52927;BME280;40783;49.710;8.842;2023-04-01T00:14:23;97475.19;;;9.06;100.00
52927;BME280;40783;49.710;8.842;2023-04-01T00:16:48;97465.91;;;9.02;100.00
52927;BME280;40783;49.710;8.842;2023-04-01T00:19:13;97475.13;;;9.00;100.00
52927;BME280;40783;49.710;8.842;2023-04-01T00:21:40;97466.44;;;8.91;100.00
52927;BME280;40783;49.710;8.842;2023-04-01T00:24:06;97474.94;;;9.01;100.00
52927;BME280;40783;49.710;8.842;2023-04-01T00:26:34;97470.63;;;9.00;100.00
52927;BME280;40783;49.710;8.842;2023-04-01T00:28:59;97471.50;;;9.08;100.00
52927;BME280;40783;49.710;8.842;2023-04-01T00:31:25;97460.72;;;9.16;100.00
52927;BME280;40783;49.710;8.842;2023-04-01T00:33:51;97472.78;;;9.12;100.00
52927;BME280;40783;49.710;8.842;2023-04-01T00:36:17;97470.22;;;9.03;100.00
52927;BME280;40783;49.710;8.842;2023-04-01T00:38:45;97460.47;;;9.11;100.00
52927;BME280;40783;49.710;8.842;2023-04-01T00:41:11;97470.63;;;9.00;100.00
52927;BME280;40783;49.710;8.842;2023-04-01T00:43:39;97472.66;;;8.98;100.00
52927;BME280;40783;49.710;8.842;2023-04-01T00:46:05;97474.31;;;8.99;100.00
52927;BME280;40783;49.710;8.842;2023-04-01T00:48:33;97467.19;;;9.06;100.00
52927;BME280;40783;49.710;8.842;2023-04-01T00:51:02;97468.19;;;9.05;100.00
52927;BME280;40783;49.710;8.842;2023-04-01T00:53:29;97459.56;;;9.03;100.00
52927;BME280;40783;49.710;8.842;2023-04-01T00:55:56;97459.13;;;9.00;100.00
52927;BME280;40783;49.710;8.842;2023-04-01T00:58:24;97466.06;;;8.94;100.00
52927;BME280;40783;49.710;8.842;2023-04-01T01:00:54;97466.44;;;8.91;100.00
52927;BME280;40783;49.710;8.842;2023-04-01T01:03:22;97457.88;;;8.96;100.00
52927;BME280;40783;49.710;8.842;2023-04-01T01:08:37;97475.97;;;9.00;100.00
52927;BME280;40783;49.710;8.842;2023-04-01T01:11:10;97467.50;;;8.97;100.00
52927;BME280;40783;49.710;8.842;2023-04-01T01:14:00;97467.34;;;8.98;100.00
52927;BME280;40783;49.710;8.842;2023-04-01T01:16:25;97474.31;;;8.99;100.00
52927;BME280;40783;49.710;8.842;2023-04-01T01:19:16;97472.25;;;9.01;100.00
52927;BME280;40783;49.710;8.842;2023-04-01T01:21:49;97462.75;;;8.92;100.00
52927;BME280;40783;49.710;8.842;2023-04-01T01:24:25;97464.78;;;8.90;100.00
52927;BME280;40783;49.710;8.842;2023-04-01T01:27:06;97465.81;;;8.89;100.00
52927;BME280;40783;49.710;8.842;2023-04-01T01:35:13;97458.19;;;8.86;100.00
52927;BME280;40783;49.710;8.842;2023-04-01T01:37:40;97456.16;;;8.88;100.00
52927;BME280;40783;49.710;8.842;2023-04-01T01:40:10;97460.59;;;8.81;100.00
52927;BME280;40783;49.710;8.842;2023-04-01T01:42:37;97444.84;;;8.86;100.00
52927;BME280;40783;49.710;8.842;2023-04-01T01:45:04;97457.53;;;8.84;100.00
52927;BME280;40783;49.710;8.842;2023-04-01T01:47:30;97460.28;;;8.90;100.00
52927;BME280;40783;49.710;8.842;2023-04-01T01:49:58;97452.84;;;8.86;100.00
52927;BME280;40783;49.710;8.842;2023-04-01T01:52:24;97453.13;;;8.91;100.00
52927;BME280;40783;49.710;8.842;2023-04-01T01:54:53;97451.84;;;8.87;100.00
52927;BME280;40783;49.710;8.842;2023-04-01T01:57:39;97455.13;;;8.89;100.00
52927;BME280;40783;49.710;8.842;2023-04-01T02:00:09;97444.28;;;8.90;100.00
52927;BME280;40783;49.710;8.842;2023-04-01T02:02:41;97439.03;;;8.97;100.00
52927;BME280;40783;49.710;8.842;2023-04-01T02:05:09;97448.41;;;8.93;100.00
52927;BME280;40783;49.710;8.842;2023-04-01T02:07:36;97436.34;;;8.97;100.00
52927;BME280;40783;49.710;8.842;2023-04-01T02:10:02;97438.38;;;8.95;100.00
52927;BME280;40783;49.710;8.842;2023-04-01T02:12:28;97431.78;;;8.91;100.00
52927;BME280;40783;49.710;8.842;2023-04-01T02:15:08;97432.41;;;8.93;100.00
52927;BME280;40783;49.710;8.842;2023-04-01T02:17:34;97431.78;;;8.91;100.00
52927;BME280;40783;49.710;8.842;2023-04-01T02:20:04;97439.78;;;8.91;100.00
52927;BME280;40783;49.710;8.842;2023-04-01T02:22:33;97425.06;;;8.95;100.00
52927;BME280;40783;49.710;8.842;2023-04-01T02:25:01;97431.19;;;8.96;100.00
52927;BME280;40783;49.710;8.842;2023-04-01T02:27:27;97421.38;;;8.96;100.00
52927;BME280;40783;49.710;8.842;2023-04-01T02:29:53;97434.06;;;8.94;100.00
52927;BME280;40783;49.710;8.842;2023-04-01T02:32:20;97434.44;;;8.91;100.00
52927;BME280;40783;49.710;8.842;2023-04-01T02:34:46;97430.78;;;8.92;100.00
52927;BME280;40783;49.710;8.842;2023-04-01T02:37:12;97438.94;;;8.90;100.00
52927;BME280;40783;49.710;8.842;2023-04-01T02:39:38;97439.03;;;8.97;100.00
52927;BME280;40783;49.710;8.842;2023-04-01T02:42:03;97444.84;;;9.08;100.00
52927;BME280;40783;49.710;8.842;2023-04-01T02:44:28;97437.59;;;9.01;100.00
52927;BME280;40783;49.710;8.842;2023-04-01T02:46:55;97441.88;;;8.96;100.00
52927;BME280;40783;49.710;8.842;2023-04-01T02:49:21;97436.09;;;8.92;100.00
52927;BME280;40783;49.710;8.842;2023-04-01T02:51:46;97454.19;;;8.97;100.00
52927;BME280;40783;49.710;8.842;2023-04-01T02:54:11;97442.38;;;9.06;100.00
52927;BME280;40783;49.710;8.842;2023-04-01T02:56:37;97447.13;;;8.89;100.00
52927;BME280;40783;49.710;8.842;2023-04-01T02:59:06;97450.44;;;8.91;100.00
52927;BME280;40783;49.710;8.842;2023-04-01T03:01:31;97441.44;;;8.92;100.00
52927;BME280;40783;49.710;8.842;2023-04-01T03:03:57;97451.34;;;8.98;100.00
52927;BME280;40783;49.710;8.842;2023-04-01T03:06:22;97446.75;;;8.92;100.00
52927;BME280;40783;49.710;8.842;2023-04-01T03:08:49;97440.69;;;8.98;100.00
52927;BME280;40783;49.710;8.842;2023-04-01T03:11:17;97433.69;;;8.97;100.00
52927;BME280;40783;49.710;8.842;2023-04-01T03:13:42;97435.34;;;8.98;100.00
52927;BME280;40783;49.710;8.842;2023-04-01T03:16:07;97431.16;;;8.89;100.00
52927;BME280;40783;49.710;8.842;2023-04-01T03:18:32;97442.06;;;8.94;100.00
52927;BME280;40783;49.710;8.842;2023-04-01T03:21:11;97437.00;;;8.99;100.00
52927;BME280;40783;49.710;8.842;2023-04-01T03:23:36;97442.38;;;9.06;100.00
52927;BME280;40783;49.710;8.842;2023-04-01T03:26:01;97437.38;;;8.96;100.00
52927;BME280;40783;49.710;8.842;2023-04-01T03:28:27;97436.59;;;9.02;100.00
52927;BME280;40783;49.710;8.842;2023-04-01T03:30:52;97425.88;;;8.96;100.00
52927;BME280;40783;49.710;8.842;2023-04-01T03:33:19;97439.88;;;9.04;100.00
52927;BME280;40783;49.710;8.842;2023-04-01T03:35:45;97435.13;;;9.00;100.00
52927;BME280;40783;49.710;8.842;2023-04-01T03:38:10;97444.34;;;8.97;100.00
52927;BME280;40783;49.710;8.842;2023-04-01T03:40:35;97444.34;;;8.97;100.00
52927;BME280;40783;49.710;8.842;2023-04-01T03:43:03;97448.41;;;8.93;100.00
52927;BME280;40783;49.710;8.842;2023-04-01T03:45:33;97453.00;;;8.99;100.00
52927;BME280;40783;49.710;8.842;2023-04-01T03:47:58;97437.59;;;9.01;100.00
52927;BME280;40783;49.710;8.842;2023-04-01T03:50:23;97446.38;;;8.95;100.00
52927;BME280;40783;49.710;8.842;2023-04-01T03:52:48;97441.81;;;8.89;100.00
52927;BME280;40783;49.710;8.842;2023-04-01T03:55:14;97439.78;;;8.91;100.00
52927;BME280;40783;49.710;8.842;2023-04-01T03:57:40;97441.44;;;8.92;100.00
52927;BME280;40783;49.710;8.842;2023-04-01T04:00:05;97444.22;;;8.84;100.00
52927;BME280;40783;49.710;8.842;2023-04-01T04:02:31;97432.41;;;8.93;100.00
52927;BME280;40783;49.710;8.842;2023-04-01T04:04:56;97434.06;;;8.94;100.00
52927;BME280;40783;49.710;8.842;2023-04-01T04:07:21;97449.44;;;8.92;100.00
52927;BME280;40783;49.710;8.842;2023-04-01T04:09:46;97431.16;;;8.89;100.00
52927;BME280;40783;49.710;8.842;2023-04-01T04:12:12;97437.28;;;8.89;100.00
52927;BME280;40783;49.710;8.842;2023-04-01T04:14:40;97427.22;;;8.85;100.00
52927;BME280;40783;49.710;8.842;2023-04-01T04:17:05;97440.16;;;8.88;100.00
52927;BME280;40783;49.710;8.842;2023-04-01T04:19:32;97423.78;;;8.91;100.00
52927;BME280;40783;49.710;8.842;2023-04-01T04:21:58;97424.16;;;8.88;100.00
52927;BME280;40783;49.710;8.842;2023-04-01T04:24:26;97425.44;;;8.92;100.00
52927;BME280;40783;49.710;8.842;2023-04-01T04:26:52;97437.75;;;8.93;100.00
52927;BME280;40783;49.710;8.842;2023-04-01T04:29:17;97431.31;;;8.87;100.00
52927;BME280;40783;49.710;8.842;2023-04-01T04:31:42;97430.78;;;8.92;100.00
52927;BME280;40783;49.710;8.842;2023-04-01T04:34:08;97431.97;;;8.89;100.00
52927;BME280;40783;49.710;8.842;2023-04-01T04:36:33;97430.78;;;8.92;100.00
52927;BME280;40783;49.710;8.842;2023-04-01T04:38:59;97433.19;;;8.87;100.00
52927;BME280;40783;49.710;8.842;2023-04-01T04:41:26;97445.13;;;8.91;100.00
52927;BME280;40783;49.710;8.842;2023-04-01T04:43:53;97427.84;;;8.87;100.00
52927;BME280;40783;49.710;8.842;2023-04-01T04:46:18;97437.66;;;8.86;100.00
52927;BME280;40783;49.710;8.842;2023-04-01T04:48:43;97429.88;;;8.85;100.00
52927;BME280;40783;49.710;8.842;2023-04-01T04:51:12;97422.94;;;8.90;100.00
52927;BME280;40783;49.710;8.842;2023-04-01T04:53:37;97430.00;;;8.98;100.00
52927;BME280;40783;49.710;8.842;2023-04-01T04:56:02;97412.38;;;8.97;100.00
52927;BME280;40783;49.710;8.842;2023-04-01T04:58:27;97425.44;;;8.92;100.00
52927;BME280;40783;49.710;8.842;2023-04-01T05:00:55;97429.13;;;8.91;100.00
52927;BME280;40783;49.710;8.842;2023-04-01T05:03:20;97415.28;;;8.81;100.00
52927;BME280;40783;49.710;8.842;2023-04-01T05:05:52;97416.72;;;8.83;100.00
52927;BME280;40783;49.710;8.842;2023-04-01T05:08:18;97412.88;;;8.86;100.00
52927;BME280;40783;49.710;8.842;2023-04-01T05:10:43;97420.88;;;8.86;100.00
52927;BME280;40783;49.710;8.842;2023-04-01T05:13:09;97407.28;;;8.81;100.00
52927;BME280;40783;49.710;8.842;2023-04-01T05:15:35;97424.53;;;8.85;100.00
52927;BME280;40783;49.710;8.842;2023-04-01T05:18:00;97403.66;;;8.88;100.00
52927;BME280;40783;49.710;8.842;2023-04-01T05:20:25;97408.56;;;8.85;100.00
52927;BME280;40783;49.710;8.842;2023-04-01T05:22:59;97412.28;;;8.90;100.00
52927;BME280;40783;49.710;8.842;2023-04-01T05:25:25;97413.88;;;8.85;100.00
52927;BME280;40783;49.710;8.842;2023-04-01T05:27:50;97417.56;;;8.84;100.00
52927;BME280;40783;49.710;8.842;2023-04-01T05:30:18;97422.06;;;8.83;100.00
52927;BME280;40783;49.710;8.842;2023-04-01T05:32:45;97415.16;;;8.89;100.00
52927;BME280;40783;49.710;8.842;2023-04-01T05:35:10;97419.06;;;8.71;100.00
52927;BME280;40783;49.710;8.842;2023-04-01T05:37:36;97430.31;;;8.67;100.00
52927;BME280;40783;49.710;8.842;2023-04-01T05:40:01;97424.25;;;8.58;100.00
52927;BME280;40783;49.710;8.842;2023-04-01T05:42:27;97422.06;;;8.46;100.00
52927;BME280;40783;49.710;8.842;2023-04-01T05:44:52;97419.28;;;8.55;100.00
52927;BME280;40783;49.710;8.842;2023-04-01T05:47:17;97406.81;;;8.40;100.00
52927;BME280;40783;49.710;8.842;2023-04-01T05:49:43;97420.31;;;8.39;100.00
52927;BME280;40783;49.710;8.842;2023-04-01T05:52:10;97417.28;;;8.42;100.00
52927;BME280;40783;49.710;8.842;2023-04-01T05:54:36;97421.53;;;8.36;100.00
52927;BME280;40783;49.710;8.842;2023-04-01T05:57:01;97422.81;;;8.40;100.00
52927;BME280;40783;49.710;8.842;2023-04-01T05:59:28;97411.78;;;8.43;100.00
52927;BME280;40783;49.710;8.842;2023-04-01T06:01:56;97404.72;;;8.36;100.00
52927;BME280;40783;49.710;8.842;2023-04-01T06:04:21;97413.66;;;8.28;100.00
52927;BME280;40783;49.710;8.842;2023-04-01T06:06:46;97429.25;;;8.31;100.00
52927;BME280;40783;49.710;8.842;2023-04-01T06:11:41;97427.13;;;8.26;100.00
52927;BME280;40783;49.710;8.842;2023-04-01T06:14:16;97418.13;;;8.42;100.00
52927;BME280;40783;49.710;8.842;2023-04-01T06:32:41;97428.13;;;8.40;100.00
52927;BME280;40783;49.710;8.842;2023-04-01T06:35:16;97429.78;;;8.41;100.00
52927;BME280;40783;49.710;8.842;2023-04-01T06:50:56;97426.13;;;8.42;100.00
52927;BME280;40783;49.710;8.842;2023-04-01T06:55:59;97417.47;;;8.40;100.00
52927;BME280;40783;49.710;8.842;2023-04-01T06:58:26;97428.78;;;8.42;100.00
52927;BME280;40783;49.710;8.842;2023-04-01T07:00:53;97424.63;;;8.55;100.00
52927;BME280;40783;49.710;8.842;2023-04-01T07:03:39;97431.97;;;8.53;100.00
52927;BME280;40783;49.710;8.842;2023-04-01T07:06:27;97429.31;;;8.53;100.00
52927;BME280;40783;49.710;8.842;2023-04-01T07:08:54;97436.88;;;8.49;100.00
52927;BME280;40783;49.710;8.842;2023-04-01T07:11:25;97438.53;;;8.50;100.00
52927;BME280;40783;49.710;8.842;2023-04-01T07:16:58;97436.56;;;8.59;100.00
52927;BME280;40783;49.710;8.842;2023-04-01T07:19:32;97437.31;;;8.53;100.00
52927;BME280;40783;49.710;8.842;2023-04-01T07:24:48;97435.66;;;8.52;100.00
52927;BME280;40783;49.710;8.842;2023-04-01T07:27:14;97427.56;;;8.60;100.00
52927;BME280;40783;49.710;8.842;2023-04-01T07:29:39;97438.97;;;8.54;100.00
52927;BME280;40783;49.710;8.842;2023-04-01T07:37:15;97443.00;;;8.50;100.00
52927;BME280;40783;49.710;8.842;2023-04-01T07:45:06;97460.66;;;8.51;100.00
52927;BME280;40783;49.710;8.842;2023-04-01T07:57:53;97462.09;;;8.68;100.00
52927;BME280;40783;49.710;8.842;2023-04-01T08:05:32;97452.31;;;8.75;100.00
52927;BME280;40783;49.710;8.842;2023-04-01T08:10:49;97453.22;;;8.83;100.00
52927;BME280;40783;49.710;8.842;2023-04-01T08:13:21;97450.34;;;8.84;100.00
52927;BME280;40783;49.710;8.842;2023-04-01T08:21:10;97454.72;;;8.70;100.00
52927;BME280;40783;49.710;8.842;2023-04-01T08:23:41;97464.25;;;8.80;100.00
52927;BME280;40783;49.710;8.842;2023-04-01T08:28:43;97475.38;;;8.83;100.00
52927;BME280;40783;49.710;8.842;2023-04-01T08:34:02;97481.22;;;8.94;100.00
52927;BME280;40783;49.710;8.842;2023-04-01T08:36:34;97479.19;;;8.96;100.00
52927;BME280;40783;49.710;8.842;2023-04-01T08:39:04;97475.81;;;8.87;100.00
52927;BME280;40783;49.710;8.842;2023-04-01T08:41:42;97484.19;;;8.84;100.00
52927;BME280;40783;49.710;8.842;2023-04-01T08:59:30;97480.69;;;8.83;100.00
52927;BME280;40783;49.710;8.842;2023-04-01T09:02:23;97478.97;;;8.75;100.00
52927;BME280;40783;49.710;8.842;2023-04-01T09:10:11;97486.22;;;8.82;100.00
52927;BME280;40783;49.710;8.842;2023-04-01T09:22:59;97501.59;;;8.80;100.00
52927;BME280;40783;49.710;8.842;2023-04-01T09:35:54;97505.41;;;8.92;100.00
52927;BME280;40783;49.710;8.842;2023-04-01T09:38:30;97505.69;;;8.97;100.00
52927;BME280;40783;49.710;8.842;2023-04-01T09:51:32;97504.34;;;9.08;100.00
52927;BME280;40783;49.710;8.842;2023-04-01T09:54:13;97504.34;;;9.08;100.00
52927;BME280;40783;49.710;8.842;2023-04-01T10:12:52;97519.66;;;8.84;100.00
52927;BME280;40783;49.710;8.842;2023-04-01T10:20:36;97521.03;;;8.95;100.00
52927;BME280;40783;49.710;8.842;2023-04-01T10:54:43;97533.75;;;9.37;100.00
52927;BME280;40783;49.710;8.842;2023-04-01T10:59:55;97525.88;;;9.28;100.00
52927;BME280;40783;49.710;8.842;2023-04-01T11:17:53;97534.28;;;9.47;100.00
52927;BME280;40783;49.710;8.842;2023-04-01T11:23:14;97543.47;;;9.44;100.00
52927;BME280;40783;49.710;8.842;2023-04-01T11:33:36;97540.94;;;9.58;100.00
52927;BME280;40783;49.710;8.842;2023-04-01T11:36:17;97542.78;;;9.35;100.00
52927;BME280;40783;49.710;8.842;2023-04-01T11:49:03;97546.00;;;9.53;100.00
52927;BME280;40783;49.710;8.842;2023-04-01T11:51:38;97535.13;;;9.54;100.00
52927;BME280;40783;49.710;8.842;2023-04-01T12:09:58;97554.78;;;9.46;100.00
52927;BME280;40783;49.710;8.842;2023-04-01T12:15:29;97560.69;;;9.63;100.00
52927;BME280;40783;49.710;8.842;2023-04-01T12:18:04;97545.88;;;9.61;100.00
52927;BME280;40783;49.710;8.842;2023-04-01T12:20:39;97559.78;;;9.56;100.00
52927;BME280;40783;49.710;8.842;2023-04-01T12:38:59;97568.94;;;9.69;100.00
52927;BME280;40783;49.710;8.842;2023-04-01T12:55:19;97574.41;;;9.82;100.00
52927;BME280;40783;49.710;8.842;2023-04-01T12:58:10;97576.31;;;9.88;100.00
52927;BME280;40783;49.710;8.842;2023-04-01T13:05:59;97582.06;;;9.92;100.00
52927;BME280;40783;49.710;8.842;2023-04-01T13:11:02;97580.63;;;9.89;100.00
52927;BME280;40783;49.710;8.842;2023-04-01T13:16:12;97585.41;;;9.72;100.00
52927;BME280;40783;49.710;8.842;2023-04-01T13:21:17;97588.06;;;9.50;100.00
52927;BME280;40783;49.710;8.842;2023-04-01T13:24:05;97587.06;;;9.52;100.00
52927;BME280;40783;49.710;8.842;2023-04-01T13:29:16;97589.41;;;9.61;100.00
52927;BME280;40783;49.710;8.842;2023-04-01T13:41:53;97607.59;;;9.73;100.00
52927;BME280;40783;49.710;8.842;2023-04-01T13:44:34;97613.81;;;9.80;100.00
52927;BME280;40783;49.710;8.842;2023-04-01T14:00:25;97603.56;;;9.84;100.00
52927;BME280;40783;49.710;8.842;2023-04-01T14:02:34;97615.47;;;9.81;100.00
52927;BME280;40783;49.710;8.842;2023-04-01T14:08:01;97617.13;;;9.82;100.00
52927;BME280;40783;49.710;8.842;2023-04-01T14:10:35;97613.81;;;9.80;100.00
52927;BME280;40783;49.710;8.842;2023-04-01T14:13:07;97615.34;;;9.68;100.00
52927;BME280;40783;49.710;8.842;2023-04-01T14:33:27;97625.25;;;9.74;100.00
52927;BME280;40783;49.710;8.842;2023-04-01T14:53:44;97639.81;;;9.71;100.00
52927;BME280;40783;49.710;8.842;2023-04-01T14:56:16;97652.69;;;9.68;100.00
52927;BME280;40783;49.710;8.842;2023-04-01T14:58:59;97650.41;;;9.64;100.00
52927;BME280;40783;49.710;8.842;2023-04-01T15:01:45;97642.66;;;9.70;100.00
52927;BME280;40783;49.710;8.842;2023-04-01T15:09:35;97657.28;;;9.74;100.00
52927;BME280;40783;49.710;8.842;2023-04-01T15:17:43;97663.91;;;9.78;100.00
52927;BME280;40783;49.710;8.842;2023-04-01T15:43:23;97690.75;;;9.91;100.00
52927;BME280;40783;49.710;8.842;2023-04-01T15:48:27;97685.41;;;9.91;100.00
52927;BME280;40783;49.710;8.842;2023-04-01T15:51:02;97694.50;;;9.97;100.00
52927;BME280;40783;49.710;8.842;2023-04-01T15:56:28;97705.03;;;9.84;100.00
52927;BME280;40783;49.710;8.842;2023-04-01T16:09:50;97701.72;;;9.82;100.00
52927;BME280;40783;49.710;8.842;2023-04-01T16:12:37;97704.06;;;9.70;100.00
52927;BME280;40783;49.710;8.842;2023-04-01T16:15:27;97708.97;;;9.66;100.00
52927;BME280;40783;49.710;8.842;2023-04-01T16:20:46;97721.56;;;9.57;100.00
52927;BME280;40783;49.710;8.842;2023-04-01T16:23:36;97721.69;;;9.49;100.00
52927;BME280;40783;49.710;8.842;2023-04-01T16:26:13;97725.66;;;9.53;100.00
52927;BME280;40783;49.710;8.842;2023-04-01T16:48:59;97742.97;;;9.27;100.00
52927;BME280;40783;49.710;8.842;2023-04-01T16:51:26;97742.97;;;9.27;100.00
52927;BME280;40783;49.710;8.842;2023-04-01T16:54:02;97743.97;;;9.26;100.00
52927;BME280;40783;49.710;8.842;2023-04-01T16:56:39;97744.25;;;9.31;100.00
52927;BME280;40783;49.710;8.842;2023-04-01T17:01:43;97752.06;;;9.33;100.00
52927;BME280;40783;49.710;8.842;2023-04-01T17:04:16;97748.56;;;9.32;100.00
52927;BME280;40783;49.710;8.842;2023-04-01T17:06:45;97758.97;;;9.27;100.00
52927;BME280;40783;49.710;8.842;2023-04-01T17:09:24;97754.91;;;9.31;100.00
52927;BME280;40783;49.710;8.842;2023-04-01T17:11:57;97758.22;;;9.33;100.00
52927;BME280;40783;49.710;8.842;2023-04-01T17:14:28;97763.56;;;9.33;100.00
52927;BME280;40783;49.710;8.842;2023-04-01T17:19:46;97760.44;;;9.15;100.00
52927;BME280;40783;49.710;8.842;2023-04-01T17:22:48;97772.66;;;9.24;100.00
52927;BME280;40783;49.710;8.842;2023-04-01T17:51:29;97811.88;;;9.24;100.00
52927;BME280;40783;49.710;8.842;2023-04-01T18:01:36;97823.72;;;9.21;100.00
52927;BME280;40783;49.710;8.842;2023-04-01T18:04:08;97831.44;;;9.16;100.00
52927;BME280;40783;49.710;8.842;2023-04-01T18:09:17;97823.16;;;9.11;100.00
52927;BME280;40783;49.710;8.842;2023-04-01T18:19:53;97853.00;;;8.91;100.00
52927;BME280;40783;49.710;8.842;2023-04-01T18:30:03;97873.31;;;8.92;100.00
52927;BME280;40783;49.710;8.842;2023-04-01T18:32:37;97870.38;;;8.87;100.00
52927;BME280;40783;49.710;8.842;2023-04-01T18:37:57;97881.97;;;8.94;100.00
52927;BME280;40783;49.710;8.842;2023-04-01T18:40:28;97884.00;;;8.92;100.00
52927;BME280;40783;49.710;8.842;2023-04-01T18:48:21;97891.78;;;8.94;100.00
52927;BME280;40783;49.710;8.842;2023-04-01T18:50:52;97885.34;;;8.88;100.00
52927;BME280;40783;49.710;8.842;2023-04-01T18:55:49;97899.63;;;8.95;100.00
52927;BME280;40783;49.710;8.842;2023-04-01T19:00:49;97907.34;;;8.90;100.00
52927;BME280;40783;49.710;8.842;2023-04-01T19:05:49;97905.69;;;8.89;100.00
52927;BME280;40783;49.710;8.842;2023-04-01T19:08:29;97921.78;;;8.96;100.00
52927;BME280;40783;49.710;8.842;2023-04-01T19:26:36;97944.84;;;8.57;100.00
52927;BME280;40783;49.710;8.842;2023-04-01T19:44:51;97961.44;;;8.67;100.00
52927;BME280;40783;49.710;8.842;2023-04-01T19:52:29;97966.75;;;8.75;100.00
52927;BME280;40783;49.710;8.842;2023-04-01T19:57:43;97967.13;;;8.64;100.00
52927;BME280;40783;49.710;8.842;2023-04-01T20:00:15;97968.53;;;8.52;100.00
52927;BME280;40783;49.710;8.842;2023-04-01T20:08:11;97979.84;;;8.54;100.00
52927;BME280;40783;49.710;8.842;2023-04-01T20:16:05;98006.06;;;8.73;100.00
52927;BME280;40783;49.710;8.842;2023-04-01T20:18:36;97995.72;;;8.79;100.00
52927;BME280;40783;49.710;8.842;2023-04-01T20:21:24;97997.72;;;8.76;100.00
52927;BME280;40783;49.710;8.842;2023-04-01T20:26:35;98004.44;;;8.64;100.00
52927;BME280;40783;49.710;8.842;2023-04-01T20:31:40;98015.44;;;8.61;100.00
52927;BME280;40783;49.710;8.842;2023-04-01T20:34:15;98014.63;;;8.60;100.00
52927;BME280;40783;49.710;8.842;2023-04-01T20:39:41;98018.84;;;8.46;100.00
52927;BME280;40783;49.710;8.842;2023-04-01T20:44:38;98022.66;;;8.52;100.00
52927;BME280;40783;49.710;8.842;2023-04-01T20:57:24;98034.41;;;8.66;100.00
52927;BME280;40783;49.710;8.842;2023-04-01T21:08:02;98027.41;;;8.65;100.00
52927;BME280;40783;49.710;8.842;2023-04-01T21:15:38;98034.06;;;8.69;100.00
52927;BME280;40783;49.710;8.842;2023-04-01T21:26:11;98055.06;;;8.64;100.00
52927;BME280;40783;49.710;8.842;2023-04-01T21:33:55;98068.41;;;8.64;100.00
52927;BME280;40783;49.710;8.842;2023-04-01T21:47:06;98088.69;;;8.73;100.00
52927;BME280;40783;49.710;8.842;2023-04-01T22:07:17;98103.69;;;8.74;100.00
52927;BME280;40783;49.710;8.842;2023-04-01T22:12:42;98120.00;;;8.80;100.00
52927;BME280;40783;49.710;8.842;2023-04-01T22:15:25;98114.16;;;8.76;100.00
52927;BME280;40783;49.710;8.842;2023-04-01T22:20:47;98121.03;;;8.70;100.00
52927;BME280;40783;49.710;8.842;2023-04-01T22:28:15;98133.72;;;8.52;100.00
52927;BME280;40783;49.710;8.842;2023-04-01T22:30:45;98130.38;;;8.58;100.00
52927;BME280;40783;49.710;8.842;2023-04-01T22:33:27;98127.03;;;8.64;100.00
52927;BME280;40783;49.710;8.842;2023-04-01T22:41:05;98133.00;;;8.74;100.00
52927;BME280;40783;49.710;8.842;2023-04-01T22:43:37;98133.00;;;8.74;100.00
52927;BME280;40783;49.710;8.842;2023-04-01T22:48:42;98138.19;;;8.68;100.00
52927;BME280;40783;49.710;8.842;2023-04-01T22:51:19;98139.34;;;8.65;100.00
52927;BME280;40783;49.710;8.842;2023-04-01T22:56:23;98142.22;;;8.64;100.00
52927;BME280;40783;49.710;8.842;2023-04-01T22:58:59;98142.69;;;8.59;100.00
52927;BME280;40783;49.710;8.842;2023-04-01T23:01:28;98146.03;;;8.53;100.00
52927;BME280;40783;49.710;8.842;2023-04-01T23:03:55;98151.38;;;8.53;100.00
52927;BME280;40783;49.710;8.842;2023-04-01T23:06:29;98151.38;;;8.53;100.00
52927;BME280;40783;49.710;8.842;2023-04-01T23:09:05;98151.69;;;8.58;100.00
52927;BME280;40783;49.710;8.842;2023-04-01T23:11:38;98154.03;;;8.61;100.00
52927;BME280;40783;49.710;8.842;2023-04-01T23:16:57;98151.19;;;8.63;100.00
52927;BME280;40783;49.710;8.842;2023-04-01T23:19:32;98157.00;;;8.66;100.00
52927;BME280;40783;49.710;8.842;2023-04-01T23:24:30;98164.34;;;8.64;100.00
52927;BME280;40783;49.710;8.842;2023-04-01T23:29:26;98176.53;;;8.58;100.00
52927;BME280;40783;49.710;8.842;2023-04-01T23:31:59;98177.19;;;8.60;100.00
52927;BME280;40783;49.710;8.842;2023-04-01T23:37:00;98180.69;;;8.44;100.00
52927;BME280;40783;49.710;8.842;2023-04-01T23:41:54;98188.19;;;8.32;100.00
52927;BME280;40783;49.710;8.842;2023-04-01T23:44:20;98198.69;;;8.42;100.00
52927;BME280;40783;49.710;8.842;2023-04-01T23:46:48;98194.69;;;8.46;100.00
52927;BME280;40783;49.710;8.842;2023-04-01T23:49:36;98201.66;;;8.48;100.00
52927;BME280;40783;49.710;8.842;2023-04-01T23:52:08;98197.69;;;8.43;100.00
52927;BME280;40783;49.710;8.842;2023-04-01T23:54:40;98200.81;;;8.39;100.00
52927;BME280;40783;49.710;8.842;2023-04-01T23:57:11;98213.00;;;8.25;100.00
52927;BME280;40783;49.710;8.842;2023-04-01T23:59:37;98210.66;;;8.22;100.00
